Time;durP1;ratioP1;P1;durP2;ratioP2;P2;SDS_P1;SDS_P2;PMS_P1;PMS_P2;Temp;Humidity;BMP_temperature;BMP_pressure;BME280_temperature;BME280_humidity;BME280_pressure;Samples;Min_cycle;Max_cycle;Signal;HPM_P1;HPM_P2
2022/09/28 00:02:07;;;;;;;;;;;;;;;18.30;56.05;99057.47;2150369;82;49921;-77
2022/09/28 00:05:11;;;;;;;;;;;;;;;18.28;56.11;99052.84;2174746;82;50402;-76
2022/09/28 00:08:12;;;;;;;;;;;;;;;18.29;56.06;99061.20;2179891;80;22505;-76
2022/09/28 00:11:14;;;;;;;;;;;;;;;18.28;56.05;99051.51;2188331;80;49585;-77
2022/09/28 00:14:16;;;;;;;;;;;;;;;18.26;56.11;99049.56;2206336;80;49558;-76
2022/09/28 00:17:21;;;;;;;;;;;;;;;18.27;56.07;99053.38;2228852;80;50041;-76
2022/09/28 00:20:21;;;;;;;;;;;;;;;18.27;56.08;99059.25;2206643;80;22325;-76
2022/09/28 00:23:23;;;;;;;;;;;;;;;18.27;56.06;99052.03;2205991;80;49592;-76
2022/09/28 00:26:25;;;;;;;;;;;;;;;18.26;56.08;99052.23;2206202;80;50396;-77
2022/09/28 00:29:27;;;;;;;;;;;;;;;18.26;56.10;99050.41;2228968;80;51550;-76
2022/09/28 00:32:28;;;;;;;;;;;;;;;18.26;56.09;99049.06;2228930;80;50760;-76
2022/09/28 00:35:30;;;;;;;;;;;;;;;18.26;56.08;99054.42;2206365;80;51511;-77
2022/09/28 00:38:32;;;;;;;;;;;;;;;18.26;56.08;99052.23;2206598;80;51667;-77
2022/09/28 00:41:33;;;;;;;;;;;;;;;18.26;56.06;99045.55;2183784;80;51542;-77
2022/09/28 00:44:36;;;;;;;;;;;;;;;18.27;56.02;99049.88;2176935;81;51548;-77
2022/09/28 00:47:43;;;;;;;;;;;;;;;18.23;56.07;99042.79;2153159;81;51152;-77
2022/09/28 00:50:44;;;;;;;;;;;;;;;18.26;56.05;99037.52;2174416;81;50804;-77
2022/09/28 00:53:46;;;;;;;;;;;;;;;18.26;56.01;99030.82;2170034;81;51563;-77
2022/09/28 00:56:47;;;;;;;;;;;;;;;18.26;56.05;99028.14;2165735;81;51590;-77
2022/09/28 00:59:49;;;;;;;;;;;;;;;18.23;56.08;99026.73;2153611;81;51052;-77
2022/09/28 01:02:51;;;;;;;;;;;;;;;18.25;56.05;99036.70;2177030;81;50767;-77
2022/09/28 01:05:53;;;;;;;;;;;;;;;18.26;56.04;99040.19;2176710;80;50361;-77
2022/09/28 01:08:55;;;;;;;;;;;;;;;18.25;56.04;99027.86;2176336;81;50482;-77
2022/09/28 01:11:56;;;;;;;;;;;;;;;18.25;56.02;99027.86;2151690;82;52633;-77
2022/09/28 01:14:59;;;;;;;;;;;;;;;18.27;56.00;99029.80;2150162;81;50348;-77
2022/09/28 01:18:08;;;;;;;;;;;;;;;18.26;56.01;99034.84;2175087;82;51634;-77
2022/09/28 01:21:16;;;;;;;;;;;;;;;18.25;55.99;99029.20;2174709;82;51453;-77
2022/09/28 01:24:39;;;;;;;;;;;;;;;18.24;56.01;99032.40;2151269;81;52602;-77
2022/09/28 01:27:43;;;;;;;;;;;;;;;18.25;55.98;99030.53;2175182;82;51530;-76
2022/09/28 01:31:02;;;;;;;;;;;;;;;18.23;56.01;99022.71;2175152;82;50794;-77
2022/09/28 01:34:05;;;;;;;;;;;;;;;18.24;56.00;99020.88;2174905;81;50711;-77
2022/09/28 01:37:08;;;;;;;;;;;;;;;18.24;55.99;99015.00;2152287;81;51081;-78
2022/09/28 01:40:09;;;;;;;;;;;;;;;18.23;55.97;99013.34;2177337;81;50342;-77
2022/09/28 01:43:15;;;;;;;;;;;;;;;18.20;56.08;99011.64;2175476;82;50368;-77
2022/09/28 01:46:27;;;;;;;;;;;;;;;18.22;56.03;99008.23;2175000;82;51590;-77
2022/09/28 01:49:30;;;;;;;;;;;;;;;18.23;56.00;99008.52;2151624;82;52707;-77
2022/09/28 01:52:33;;;;;;;;;;;;;;;18.21;56.00;99004.73;2172026;82;51670;-77
2022/09/28 01:55:36;;;;;;;;;;;;;;;18.21;56.03;99006.56;2174947;80;51597;-77
2022/09/28 01:58:45;;;;;;;;;;;;;;;18.21;56.01;99001.22;2175246;82;50443;-77
2022/09/28 02:01:54;;;;;;;;;;;;;;;18.21;56.05;98999.38;2151552;82;53157;-77
2022/09/28 02:05:01;;;;;;;;;;;;;;;18.20;56.02;98994.23;2175647;81;51535;-77
2022/09/28 02:08:13;;;;;;;;;;;;;;;18.21;56.01;99001.22;2177037;80;50377;-77
2022/09/28 02:11:15;;;;;;;;;;;;;;;18.20;56.02;99002.27;2177083;81;51578;-77
2022/09/28 02:14:17;;;;;;;;;;;;;;;18.20;56.01;98999.59;2153297;81;51020;-77
2022/09/28 02:17:18;;;;;;;;;;;;;;;18.22;55.99;99002.87;2177105;81;51561;-77
2022/09/28 02:20:20;;;;;;;;;;;;;;;18.20;56.00;98999.59;2153490;81;51541;-77
2022/09/28 02:23:22;;;;;;;;;;;;;;;18.20;56.02;99000.92;2176879;81;50784;-77
2022/09/28 02:26:24;;;;;;;;;;;;;;;18.19;56.03;98995.28;2153504;81;50093;-77
2022/09/28 02:29:26;;;;;;;;;;;;;;;18.17;56.04;98996.83;2177144;81;51557;-77
2022/09/28 02:32:27;;;;;;;;;;;;;;;18.19;56.02;98989.93;2177120;81;51417;-77
2022/09/28 02:35:29;;;;;;;;;;;;;;;18.19;56.01;98992.61;2185425;80;51554;-77
2022/09/28 02:38:30;;;;;;;;;;;;;;;18.19;55.95;98989.93;2206488;80;49585;-77
2022/09/28 02:41:43;;;;;;;;;;;;;;;18.20;55.97;98988.88;2229170;80;50325;-77
2022/09/28 02:44:59;;;;;;;;;;;;;;;18.18;55.98;98985.59;2212844;80;51584;-77
2022/09/28 02:48:07;;;;;;;;;;;;;;;18.20;55.98;98992.89;2229207;80;50716;-77
2022/09/28 02:51:27;;;;;;;;;;;;;;;18.19;55.96;98988.59;2205373;80;51020;-77
2022/09/28 02:54:31;;;;;;;;;;;;;;;18.19;55.95;98991.27;2229005;80;50532;-77
2022/09/28 02:57:36;;;;;;;;;;;;;;;18.19;55.93;98985.91;2229108;80;50454;-77
2022/09/28 03:00:40;;;;;;;;;;;;;;;18.18;55.96;98983.73;2229312;80;51586;-77
2022/09/28 03:03:43;;;;;;;;;;;;;;;18.18;55.98;98984.27;2178893;80;51132;-77
2022/09/28 03:06:45;;;;;;;;;;;;;;;18.18;55.97;98976.23;2166072;80;51547;-77
2022/09/28 03:09:51;;;;;;;;;;;;;;;18.17;55.99;98974.61;2174758;82;50827;-78
2022/09/28 03:12:53;;;;;;;;;;;;;;;18.15;55.99;98974.81;2174821;82;50836;-77
2022/09/28 03:16:08;;;;;;;;;;;;;;;18.18;55.97;98973.55;2151289;82;51010;-77
2022/09/28 03:19:11;;;;;;;;;;;;;;;18.17;55.95;98966.05;2174983;82;51476;-77
2022/09/28 03:22:13;;;;;;;;;;;;;;;18.17;55.97;98959.88;2174265;80;51491;-78
2022/09/28 03:25:17;;;;;;;;;;;;;;;18.18;55.92;98966.86;2174959;81;50412;-77
2022/09/28 03:28:20;;;;;;;;;;;;;;;18.17;55.89;98964.70;2151710;82;51152;-77
2022/09/28 03:31:22;;;;;;;;;;;;;;;18.18;55.95;98964.19;2129714;82;51105;-77
2022/09/28 03:34:23;;;;;;;;;;;;;;;18.18;55.91;98958.83;2175843;81;50451;-77
2022/09/28 03:37:25;;;;;;;;;;;;;;;18.18;55.91;98960.17;2175890;80;50649;-77
2022/09/28 03:40:27;;;;;;;;;;;;;;;18.15;55.93;98961.42;2151628;81;52581;-77
2022/09/28 03:43:30;;;;;;;;;;;;;;;18.16;55.90;98955.05;2150738;81;50362;-77
2022/09/28 03:46:31;;;;;;;;;;;;;;;18.16;55.93;98948.36;2174889;82;51523;-77
2022/09/28 03:49:33;;;;;;;;;;;;;;;18.16;55.92;98947.52;2150122;82;51580;-77
2022/09/28 03:52:34;;;;;;;;;;;;;;;18.16;55.94;98951.53;2127940;82;50064;-76
2022/09/28 03:55:37;;;;;;;;;;;;;;;18.16;55.87;98952.38;2149991;81;51535;-76
2022/09/28 03:58:38;;;;;;;;;;;;;;;18.16;55.93;98947.52;2174914;82;50455;-76
2022/09/28 04:01:40;;;;;;;;;;;;;;;18.16;55.91;98946.18;2174928;82;52511;-76
2022/09/28 04:04:41;;;;;;;;;;;;;;;18.14;55.90;98941.06;2128742;81;49725;-77
2022/09/28 04:07:43;;;;;;;;;;;;;;;18.16;55.86;98945.69;2224951;80;50344;-77
2022/09/28 04:10:45;;;;;;;;;;;;;;;18.16;55.88;98938.15;2229005;80;50418;-77
2022/09/28 04:13:49;;;;;;;;;;;;;;;18.16;55.86;98939.48;2228593;80;50457;-74
2022/09/28 04:16:53;;;;;;;;;;;;;;;18.16;55.87;98927.44;2206299;80;50984;-76
2022/09/28 04:19:54;;;;;;;;;;;;;;;18.15;55.85;98929.31;2206912;80;22359;-76
2022/09/28 04:22:57;;;;;;;;;;;;;;;18.14;55.89;98925.53;2228942;80;50400;-77
2022/09/28 04:25:59;;;;;;;;;;;;;;;18.15;55.89;98931.17;2228646;80;51596;-77
2022/09/28 04:29:16;;;;;;;;;;;;;;;18.13;55.90;98930.04;2206432;80;49594;-77
2022/09/28 04:32:17;;;;;;;;;;;;;;;18.13;55.89;98928.70;2209581;80;50286;-76
2022/09/28 04:35:19;;;;;;;;;;;;;;;18.14;55.89;98930.89;2175603;80;50643;-78
2022/09/28 04:38:20;;;;;;;;;;;;;;;18.14;55.87;98933.56;2150302;82;50327;-76
2022/09/28 04:41:22;;;;;;;;;;;;;;;18.14;55.83;98939.73;2151618;81;49678;-76
2022/09/28 04:44:24;;;;;;;;;;;;;;;18.14;55.86;98932.22;2150422;81;49954;-77
2022/09/28 04:47:25;;;;;;;;;;;;;;;18.15;55.82;98935.19;2150009;82;51538;-76
2022/09/28 04:50:27;;;;;;;;;;;;;;;18.14;55.83;98926.87;2174751;82;51490;-76
2022/09/28 04:53:28;;;;;;;;;;;;;;;18.13;55.84;98929.23;2127865;82;49522;-76
2022/09/28 04:56:30;;;;;;;;;;;;;;;18.13;55.83;98934.59;2150243;81;50363;-76
2022/09/28 04:59:32;;;;;;;;;;;;;;;18.12;55.84;98940.46;2174866;81;50395;-76
2022/09/28 05:02:33;;;;;;;;;;;;;;;18.12;55.81;98934.30;2174867;82;51576;-77
2022/09/28 05:05:35;;;;;;;;;;;;;;;18.14;55.80;98938.91;2152192;81;49480;-77
2022/09/28 05:08:37;;;;;;;;;;;;;;;18.14;55.80;98942.93;2150474;81;50511;-77
2022/09/28 05:11:38;;;;;;;;;;;;;;;18.13;55.82;98945.29;2174981;82;50415;-76
2022/09/28 05:14:40;;;;;;;;;;;;;;;18.13;55.79;98946.63;2174907;82;50422;-77
2022/09/28 05:17:42;;;;;;;;;;;;;;;18.13;55.79;98942.61;2151377;81;50254;-76
2022/09/28 05:20:44;;;;;;;;;;;;;;;18.12;55.79;98938.31;2128396;82;50137;-76
2022/09/28 05:23:46;;;;;;;;;;;;;;;18.13;55.83;98941.28;2150084;82;51415;-77
2022/09/28 05:26:47;;;;;;;;;;;;;;;18.11;55.81;98942.02;2174819;82;51549;-77
2022/09/28 05:29:49;;;;;;;;;;;;;;;18.10;55.80;98945.73;2151419;82;49467;-77
2022/09/28 05:32:50;;;;;;;;;;;;;;;18.12;55.79;98947.16;2150247;82;50300;-76
2022/09/28 05:35:52;;;;;;;;;;;;;;;18.12;55.81;98939.66;2169619;80;49980;-77
2022/09/28 05:38:53;;;;;;;;;;;;;;;18.12;55.81;98945.00;2151372;82;50648;-77
2022/09/28 05:41:56;;;;;;;;;;;;;;;18.11;55.83;98938.00;2129082;82;51848;-77
2022/09/28 05:44:58;;;;;;;;;;;;;;;18.11;55.80;98940.67;2174659;82;51532;-76
2022/09/28 05:47:59;;;;;;;;;;;;;;;18.11;55.81;98935.31;2151433;82;50366;-75
2022/09/28 05:51:01;;;;;;;;;;;;;;;18.13;55.74;98937.27;2174746;82;51504;-77
2022/09/28 05:54:03;;;;;;;;;;;;;;;18.13;55.70;98930.57;2174673;82;51511;-77
2022/09/28 05:57:05;;;;;;;;;;;;;;;18.12;55.75;98923.06;2151248;82;50272;-77
2022/09/28 06:00:08;;;;;;;;;;;;;;;18.12;55.73;98924.93;2151544;82;50315;-77
2022/09/28 06:03:13;;;;;;;;;;;;;;;18.12;55.70;98914.22;2175594;80;51500;-77
2022/09/28 06:06:14;;;;;;;;;;;;;;;18.14;55.70;98916.97;2151797;82;50987;-77
2022/09/28 06:09:16;;;;;;;;;;;;;;;18.16;55.69;98906.03;2150878;82;51007;-76
2022/09/28 06:12:18;;;;;;;;;;;;;;;18.20;55.60;98912.58;2145940;82;52346;-76
2022/09/28 06:15:20;;;;;;;;;;;;;;;18.22;55.55;98907.30;2168370;82;50697;-76
2022/09/28 06:18:22;;;;;;;;;;;;;;;18.29;55.47;98907.25;2168561;82;50300;-77
2022/09/28 06:21:24;;;;;;;;;;;;;;;18.31;55.46;98905.14;2148180;82;51564;-77
2022/09/28 06:24:25;;;;;;;;;;;;;;;18.37;55.22;98907.44;2149943;81;51476;-76
2022/09/28 06:27:27;;;;;;;;;;;;;;;18.36;55.12;98903.95;2159317;80;50748;-76
2022/09/28 06:30:29;;;;;;;;;;;;;;;18.36;55.00;98899.93;2183934;80;51551;-76
2022/09/28 06:33:31;;;;;;;;;;;;;;;18.36;54.97;98903.13;2151689;81;50331;-76
2022/09/28 06:36:32;;;;;;;;;;;;;;;18.37;54.99;98904.27;2150558;81;50730;-76
2022/09/28 06:39:34;;;;;;;;;;;;;;;18.34;55.25;98901.20;2150711;81;51429;-76
2022/09/28 06:42:36;;;;;;;;;;;;;;;18.36;55.13;98907.96;2175103;82;52338;-76
2022/09/28 06:45:38;;;;;;;;;;;;;;;18.38;55.35;98905.88;2127955;82;50170;-76
2022/09/28 06:48:39;;;;;;;;;;;;;;;18.42;55.28;98896.87;2150618;81;50436;-76
2022/09/28 06:51:41;;;;;;;;;;;;;;;18.45;55.23;98898.59;2175050;82;51420;-77
2022/09/28 06:54:42;;;;;;;;;;;;;;;18.49;55.17;98901.63;2150373;82;50163;-76
2022/09/28 06:57:44;;;;;;;;;;;;;;;18.52;55.10;98895.01;2128179;81;51273;-75
2022/09/28 07:00:46;;;;;;;;;;;;;;;18.53;55.03;98894.80;2194237;80;50440;-76
2022/09/28 07:03:47;;;;;;;;;;;;;;;18.56;54.99;98889.51;2176914;81;50268;-77
2022/09/28 07:06:49;;;;;;;;;;;;;;;18.58;54.89;98888.77;2177022;81;50360;-76
2022/09/28 07:09:54;;;;;;;;;;;;;;;18.59;54.84;98890.39;2131233;81;49644;-76
2022/09/28 07:12:55;;;;;;;;;;;;;;;18.60;54.74;98889.33;2177001;80;50771;-77
2022/09/28 07:15:58;;;;;;;;;;;;;;;18.62;54.68;98895.29;2176755;81;51580;-77
2022/09/28 07:19:00;;;;;;;;;;;;;;;18.62;54.64;98900.12;2176944;80;51544;-77
2022/09/28 07:22:01;;;;;;;;;;;;;;;18.64;54.57;98894.55;2131444;81;52485;-77
2022/09/28 07:25:03;;;;;;;;;;;;;;;18.64;54.54;98899.38;2153411;81;50819;-78
2022/09/28 07:28:05;;;;;;;;;;;;;;;18.65;54.46;98894.83;2170893;80;50685;-78
2022/09/28 07:31:08;;;;;;;;;;;;;;;18.64;54.45;98895.89;2129707;82;51739;-76
2022/09/28 07:34:10;;;;;;;;;;;;;;;18.65;54.41;98896.17;2151617;81;51157;-76
2022/09/28 07:37:12;;;;;;;;;;;;;;;18.63;54.45;98893.73;2150426;82;50320;-77
2022/09/28 07:43:33;;;;;;;;;;;;;;;18.61;54.45;98903.05;2175067;82;23458;-77
2022/09/28 07:46:34;;;;;;;;;;;;;;;18.59;54.51;98902.45;2151605;82;50974;-77
2022/09/28 07:49:36;;;;;;;;;;;;;;;18.60;54.50;98905.41;2150319;81;51511;-77
2022/09/28 07:52:38;;;;;;;;;;;;;;;18.59;54.48;98911.81;2150640;81;53655;-77
2022/09/28 07:55:39;;;;;;;;;;;;;;;18.54;54.59;98913.83;2150243;81;51548;-77
2022/09/28 07:58:41;;;;;;;;;;;;;;;18.51;54.61;98912.94;2129035;81;52459;-77
2022/09/28 08:01:43;;;;;;;;;;;;;;;18.52;54.53;98909.21;2152143;81;51457;-77
2022/09/28 08:04:46;;;;;;;;;;;;;;;18.52;54.56;98901.17;2174849;82;51550;-77
2022/09/28 08:07:48;;;;;;;;;;;;;;;18.49;54.61;98902.44;2174681;81;51556;-77
2022/09/28 08:10:51;;;;;;;;;;;;;;;18.48;54.68;98897.33;2151657;81;52578;-77
2022/09/28 08:13:54;;;;;;;;;;;;;;;18.48;54.60;98902.16;2150779;81;22404;-77
2022/09/28 08:16:55;;;;;;;;;;;;;;;18.52;54.54;98907.06;2175003;81;51622;-77
2022/09/28 08:23:16;;;;;;;;;;;;;;;18.49;54.59;98910.48;2154264;81;22420;-77
2022/09/28 08:26:18;;;;;;;;;;;;;;;18.47;54.67;98917.09;2150206;81;50775;-77
2022/09/28 08:29:19;;;;;;;;;;;;;;;18.44;54.76;98921.05;2169527;80;50656;-77
2022/09/28 08:32:21;;;;;;;;;;;;;;;18.41;54.81;98918.82;2176994;80;51521;-77
2022/09/28 08:35:24;;;;;;;;;;;;;;;18.41;54.84;98919.34;2131144;81;52588;-77
2022/09/28 08:38:26;;;;;;;;;;;;;;;18.42;54.87;98921.81;2154216;81;51544;-77
2022/09/28 08:41:29;;;;;;;;;;;;;;;18.42;54.84;98922.31;2177122;81;50778;-77
2022/09/28 08:44:32;;;;;;;;;;;;;;;18.40;54.79;98923.08;2176606;80;50806;-77
2022/09/28 08:51:19;;;;;;;;;;;;;;;18.42;54.81;98927.17;2177392;81;22235;-76
2022/09/28 08:54:36;;;;;;;;;;;;;;;18.42;54.79;98918.30;2176994;80;50181;-77
2022/09/28 08:57:45;;;;;;;;;;;;;;;18.43;54.81;98929.32;2174033;81;21931;-78
2022/09/28 09:00:50;;;;;;;;;;;;;;;18.41;54.74;98921.50;2176597;81;22124;-77
2022/09/28 09:03:57;;;;;;;;;;;;;;;18.40;54.78;98925.23;2152083;81;49560;-78
2022/09/28 09:07:20;;;;;;;;;;;;;;;18.41;54.84;98930.06;2162795;82;21814;-78
2022/09/28 09:10:28;;;;;;;;;;;;;;;18.38;54.78;98921.95;2176223;80;22959;-78
2022/09/28 09:13:33;;;;;;;;;;;;;;;18.38;54.77;98924.63;2174958;80;21991;-78
2022/09/28 09:16:38;;;;;;;;;;;;;;;18.40;54.85;98919.88;2176011;82;51030;-77
2022/09/28 09:19:47;;;;;;;;;;;;;;;18.41;54.78;98924.17;2175931;80;21942;-78
2022/09/28 09:22:57;;;;;;;;;;;;;;;18.41;54.80;98924.70;2175979;82;50863;-78
2022/09/28 09:26:02;;;;;;;;;;;;;;;18.43;54.65;98921.28;2176239;80;22857;-78
2022/09/28 09:29:14;;;;;;;;;;;;;;;18.44;54.68;98918.89;2175712;81;22420;-78
2022/09/28 09:32:35;;;;;;;;;;;;;;;18.43;54.72;98916.74;2176706;80;21882;-77
2022/09/28 09:35:53;;;;;;;;;;;;;;;18.43;54.75;98914.06;2163513;81;22674;-78
2022/09/28 09:39:11;;;;;;;;;;;;;;;18.44;54.61;98917.55;2155139;81;50651;-77
2022/09/28 09:42:18;;;;;;;;;;;;;;;18.40;54.73;98914.52;2179170;81;22007;-78
2022/09/28 09:49:16;;;;;;;;;;;;;;;18.43;54.76;98918.08;2180519;79;21754;-77
2022/09/28 09:52:34;;;;;;;;;;;;;;;18.42;54.69;98917.80;2173991;81;22351;-77
2022/09/28 09:55:45;;;;;;;;;;;;;;;18.43;54.68;98909.23;2180790;80;50090;-78
2022/09/28 09:58:53;;;;;;;;;;;;;;;18.42;54.72;98914.28;2177042;79;22164;-78
2022/09/28 10:02:03;;;;;;;;;;;;;;;18.42;54.72;98904.91;2108700;83;22594;-78
2022/09/28 10:08:59;;;;;;;;;;;;;;;18.41;54.73;98902.75;2079794;84;21985;-77
2022/09/28 10:12:02;;;;;;;;;;;;;;;18.45;54.61;98902.61;2079541;83;22458;-77
2022/09/28 10:18:48;;;;;;;;;;;;;;;18.43;54.66;98908.71;2079707;85;22087;-77
2022/09/28 10:21:58;;;;;;;;;;;;;;;18.44;54.67;98915.69;2077356;84;22306;-77
2022/09/28 10:25:00;;;;;;;;;;;;;;;18.44;54.71;98910.33;2079527;84;50613;-77
2022/09/28 10:28:02;;;;;;;;;;;;;;;18.44;54.66;98910.33;2080208;85;51169;-77
2022/09/28 10:31:09;;;;;;;;;;;;;;;18.43;54.64;98914.59;2054691;85;50687;-77
2022/09/28 10:34:17;;;;;;;;;;;;;;;18.42;54.71;98917.80;2086585;84;22423;-77
2022/09/28 10:37:21;;;;;;;;;;;;;;;18.45;54.61;98913.33;2100227;84;50791;-77
2022/09/28 10:40:35;;;;;;;;;;;;;;;18.43;54.60;98918.08;2216951;80;22013;-77
2022/09/28 10:43:39;;;;;;;;;;;;;;;18.43;54.61;98914.59;2229892;79;22181;-77
2022/09/28 10:46:40;;;;;;;;;;;;;;;18.42;54.63;98923.16;2229497;80;50682;-77
2022/09/28 10:49:43;;;;;;;;;;;;;;;18.39;54.67;98925.44;2229394;80;51457;-77
2022/09/28 10:52:45;;;;;;;;;;;;;;;18.41;54.65;98926.05;2229802;80;50668;-78
2022/09/28 10:55:58;;;;;;;;;;;;;;;18.42;54.62;98927.66;2207066;80;50102;-77
2022/09/28 10:58:59;;;;;;;;;;;;;;;18.38;54.73;98924.63;2229300;79;50441;-77
2022/09/28 11:02:02;;;;;;;;;;;;;;;18.40;54.68;98919.06;2207332;80;50323;-77
2022/09/28 11:05:04;;;;;;;;;;;;;;;18.40;54.66;98926.57;2182374;80;50783;-77
2022/09/28 11:08:06;;;;;;;;;;;;;;;18.42;54.62;98924.98;2154034;81;50245;-78
2022/09/28 11:11:08;;;;;;;;;;;;;;;18.38;54.72;98927.31;2177858;80;50515;-77
2022/09/28 11:14:28;;;;;;;;;;;;;;;18.40;54.64;98929.25;2177504;80;50679;-78
2022/09/28 11:17:31;;;;;;;;;;;;;;;18.37;54.75;98928.36;2177575;80;50446;-78
2022/09/28 11:20:34;;;;;;;;;;;;;;;18.39;54.71;98927.59;2154181;80;50149;-77
2022/09/28 11:23:35;;;;;;;;;;;;;;;18.38;54.70;98924.63;2177516;80;50678;-78
2022/09/28 11:26:39;;;;;;;;;;;;;;;18.40;54.67;98925.23;2182630;79;50740;-78
2022/09/28 11:29:41;;;;;;;;;;;;;;;18.38;54.70;98927.31;2177305;80;50143;-77
2022/09/28 11:32:43;;;;;;;;;;;;;;;18.36;54.79;98922.69;2157300;80;50186;-77
2022/09/28 11:36:03;;;;;;;;;;;;;;;18.36;54.69;98928.05;2211762;80;51559;-77
2022/09/28 11:39:10;;;;;;;;;;;;;;;18.35;54.78;98930.97;2230291;80;50334;-78
2022/09/28 11:42:18;;;;;;;;;;;;;;;18.40;54.69;98929.77;2230377;80;50388;-78
2022/09/28 11:45:34;;;;;;;;;;;;;;;18.38;54.74;98931.85;2207033;80;53117;-78
2022/09/28 11:48:40;;;;;;;;;;;;;;;18.33;54.82;98928.50;2229424;79;51701;-78
2022/09/28 11:51:42;;;;;;;;;;;;;;;18.36;54.77;98929.91;2228937;79;51478;-77
2022/09/28 11:54:46;;;;;;;;;;;;;;;18.38;54.71;98927.31;2229453;80;50717;-77
2022/09/28 11:57:55;;;;;;;;;;;;;;;18.34;54.77;98927.97;2206411;80;49651;-78
2022/09/28 12:00:58;;;;;;;;;;;;;;;18.34;54.82;98936.84;2229667;80;50805;-78
2022/09/28 12:04:02;;;;;;;;;;;;;;;18.35;54.80;98928.28;2202252;80;50808;-78
2022/09/28 12:07:05;;;;;;;;;;;;;;;18.33;54.83;98935.72;2192926;80;50887;-78
2022/09/28 12:10:20;;;;;;;;;;;;;;;18.35;54.80;98936.31;2153641;81;50107;-78
2022/09/28 12:13:24;;;;;;;;;;;;;;;18.34;54.80;98936.84;2177385;81;50428;-78
2022/09/28 12:16:43;;;;;;;;;;;;;;;18.33;54.82;98939.20;2177609;80;50427;-78
2022/09/28 12:19:54;;;;;;;;;;;;;;;18.34;54.88;98934.17;2177679;80;51444;-78
2022/09/28 12:22:59;;;;;;;;;;;;;;;18.37;54.74;98935.55;2177768;81;22347;-78
2022/09/28 12:26:02;;;;;;;;;;;;;;;18.35;54.68;98937.13;2177421;80;51570;-78
2022/09/28 12:29:05;;;;;;;;;;;;;;;18.36;54.77;98933.40;2177407;80;50410;-78
2022/09/28 12:32:25;;;;;;;;;;;;;;;18.37;54.79;98932.38;2177557;81;50541;-77
2022/09/28 12:35:28;;;;;;;;;;;;;;;18.33;54.80;98931.70;2152702;81;51933;-78
2022/09/28 12:38:43;;;;;;;;;;;;;;;18.36;54.77;98933.40;2175698;80;50777;-77
2022/09/28 12:41:48;;;;;;;;;;;;;;;18.32;54.79;98931.41;2175746;81;51607;-78
2022/09/28 12:44:56;;;;;;;;;;;;;;;18.33;54.83;98931.70;2175372;81;50308;-77
2022/09/28 12:48:11;;;;;;;;;;;;;;;18.36;54.65;98937.41;2175553;80;21703;-77
2022/09/28 12:51:26;;;;;;;;;;;;;;;18.33;54.79;98937.05;2146609;82;50802;-77
2022/09/28 12:54:33;;;;;;;;;;;;;;;18.33;54.75;98931.70;2175466;81;51606;-77
2022/09/28 12:57:37;;;;;;;;;;;;;;;18.33;54.82;98934.37;2175850;81;22917;-77
2022/09/28 13:00:50;;;;;;;;;;;;;;;18.34;54.75;98927.47;2152443;80;52856;-78
2022/09/28 13:03:59;;;;;;;;;;;;;;;18.31;54.75;98930.58;2175800;81;50699;-77
2022/09/28 13:07:05;;;;;;;;;;;;;;;18.33;54.74;98936.53;2165428;80;50896;-77
2022/09/28 13:10:17;;;;;;;;;;;;;;;18.33;54.75;98938.39;2175638;82;50671;-76
2022/09/28 13:13:20;;;;;;;;;;;;;;;18.32;54.74;98934.09;2151871;80;52537;-77
2022/09/28 13:16:23;;;;;;;;;;;;;;;18.31;54.75;98933.78;2175656;82;52222;-77
2022/09/28 13:19:32;;;;;;;;;;;;;;;18.35;54.63;98937.66;2176263;82;51515;-79
2022/09/28 13:22:38;;;;;;;;;;;;;;;18.33;54.72;98939.73;2162588;82;50760;-78
2022/09/28 13:29:09;;;;;;;;;;;;;;;18.34;54.66;98934.17;2216236;80;21922;-77
2022/09/28 13:32:13;;;;;;;;;;;;;;;18.34;54.62;98943.54;2216797;80;21749;-77
2022/09/28 13:35:32;;;;;;;;;;;;;;;18.33;54.63;98945.91;2211985;79;21837;-77
2022/09/28 13:42:40;;;;;;;;;;;;;;;18.35;54.58;98940.34;2104891;84;21905;-77
2022/09/28 13:49:31;;;;;;;;;;;;;;;18.33;54.51;98948.58;2003963;88;21997;-77
2022/09/28 13:53:04;;;;;;;;;;;;;;;18.34;54.50;98954.25;1944511;88;22060;-77
2022/09/28 13:56:30;;;;;;;;;;;;;;;18.33;54.49;98954.46;1917399;93;22433;-77
2022/09/28 13:59:39;;;;;;;;;;;;;;;18.30;54.49;98950.37;1929137;91;21805;-77
2022/09/28 14:03:09;;;;;;;;;;;;;;;18.32;54.47;98951.50;1933730;91;21979;-77
2022/09/28 14:06:30;;;;;;;;;;;;;;;18.33;54.46;98964.64;1850483;94;22276;-77
2022/09/28 14:09:54;;;;;;;;;;;;;;;18.31;54.42;98961.36;1804161;98;21930;-77
2022/09/28 14:13:05;;;;;;;;;;;;;;;18.33;54.33;98967.32;1805138;98;21998;-76
2022/09/28 14:16:25;;;;;;;;;;;;;;;18.34;54.35;98969.47;1839240;94;50427;-77
2022/09/28 14:19:31;;;;;;;;;;;;;;;18.34;54.33;98970.31;1860732;94;22330;-77
2022/09/28 14:22:35;;;;;;;;;;;;;;;18.33;54.35;98965.98;1928626;91;50288;-77
2022/09/28 14:25:48;;;;;;;;;;;;;;;18.31;54.42;98976.09;2014655;86;22405;-77
2022/09/28 14:29:13;;;;;;;;;;;;;;;18.35;54.43;98977.83;2049760;85;22207;-77
2022/09/28 14:32:19;;;;;;;;;;;;;;;18.36;54.34;98972.23;2079257;84;21872;-78
2022/09/28 14:35:34;;;;;;;;;;;;;;;18.35;54.41;98969.79;2083503;82;51302;-78
2022/09/28 14:42:11;;;;;;;;;;;;;;;18.36;54.47;98976.77;2140955;83;23659;-78
2022/09/28 14:45:18;;;;;;;;;;;;;;;18.37;54.46;98981.91;2215363;79;22683;-78
2022/09/28 14:48:23;;;;;;;;;;;;;;;18.35;54.53;98985.86;2216222;80;50560;-77
2022/09/28 14:51:28;;;;;;;;;;;;;;;18.34;54.53;98987.72;2211207;79;21824;-77
2022/09/28 14:54:32;;;;;;;;;;;;;;;18.36;54.55;98989.63;2214976;80;22398;-77
2022/09/28 14:57:35;;;;;;;;;;;;;;;18.35;54.57;98988.01;2191116;79;51536;-78
2022/09/28 15:04:42;;;;;;;;;;;;;;;18.33;54.65;98992.77;2188803;80;21744;-78
2022/09/28 15:07:50;;;;;;;;;;;;;;;18.32;54.68;98988.45;2165826;81;22491;-78
2022/09/28 15:11:01;;;;;;;;;;;;;;;18.33;54.66;98992.77;2168185;81;21938;-77
2022/09/28 15:14:06;;;;;;;;;;;;;;;18.31;54.77;98994.02;2167274;81;21785;-77
2022/09/28 15:17:08;;;;;;;;;;;;;;;18.30;54.75;98995.08;2273377;77;50542;-77
2022/09/28 15:20:46;;;;;;;;;;;;;;;18.30;54.78;98995.08;2170138;82;22404;-77
2022/09/28 15:23:56;;;;;;;;;;;;;;;18.30;54.74;98998.56;2169088;81;22552;-77
2022/09/28 15:27:07;;;;;;;;;;;;;;;18.29;54.67;98998.27;2169885;81;23273;-77
2022/09/28 15:30:15;;;;;;;;;;;;;;;18.30;54.70;99000.43;2170269;81;21755;-77
2022/09/28 15:43:45;;;;;;;;;;;;;;;18.28;54.57;99010.81;2087887;85;21765;-77
2022/09/28 15:46:50;;;;;;;;;;;;;;;18.27;54.59;99009.19;2074977;84;22106;-77
2022/09/28 15:49:58;;;;;;;;;;;;;;;18.30;54.66;99013.81;2076294;83;22084;-78
2022/09/28 15:53:10;;;;;;;;;;;;;;;18.26;54.71;99018.28;2133400;83;49847;-78
2022/09/28 15:56:14;;;;;;;;;;;;;;;18.25;54.84;99014.47;2133425;83;51566;-77
2022/09/28 15:59:19;;;;;;;;;;;;;;;18.25;55.04;99015.81;2132889;81;22948;-78
2022/09/28 16:02:24;;;;;;;;;;;;;;;18.23;54.99;99015.20;2133700;82;21892;-78
2022/09/28 16:05:34;;;;;;;;;;;;;;;18.22;55.18;99022.95;2140142;81;50243;-78
2022/09/28 16:08:37;;;;;;;;;;;;;;;18.22;55.35;99026.44;2179894;81;50721;-78
2022/09/28 16:11:40;;;;;;;;;;;;;;;18.20;55.40;99023.69;2173048;81;51578;-78
2022/09/28 16:14:42;;;;;;;;;;;;;;;18.20;55.58;99026.36;2167634;82;51569;-76
2022/09/28 16:17:47;;;;;;;;;;;;;;;18.26;55.60;99026.80;2116549;82;51345;-77
2022/09/28 16:20:52;;;;;;;;;;;;;;;18.38;54.12;99029.06;2266343;76;50739;-77
2022/09/28 16:23:57;;;;;;;;;;;;;;;18.40;52.81;99039.04;2269646;76;51584;-76
2022/09/28 16:26:59;;;;;;;;;;;;;;;18.52;52.75;99034.28;2259223;76;50286;-78
2022/09/28 16:30:04;;;;;;;;;;;;;;;18.64;52.71;99045.91;2234567;78;49731;-78
2022/09/28 16:33:06;;;;;;;;;;;;;;;18.75;52.56;99055.91;2253642;77;51623;-77
2022/09/28 16:36:09;;;;;;;;;;;;;;;18.87;52.33;99059.48;2284460;76;50447;-78
2022/09/28 16:39:11;;;;;;;;;;;;;;;18.90;52.48;99061.71;2324730;76;55361;-78
2022/09/28 16:42:13;;;;;;;;;;;;;;;18.95;52.43;99059.70;2302897;76;51888;-79
2022/09/28 16:45:19;;;;;;;;;;;;;;;19.01;52.33;99062.01;2324692;75;50410;-78
2022/09/28 16:48:22;;;;;;;;;;;;;;;19.06;52.34;99062.16;2324781;76;50561;-79
2022/09/28 16:51:23;;;;;;;;;;;;;;;19.10;52.31;99068.19;2324672;76;50509;-79
2022/09/28 16:57:45;;;;;;;;;;;;;;;19.23;52.33;99073.91;2306832;76;22482;-80
2022/09/28 17:00:46;;;;;;;;;;;;;;;19.30;52.23;99075.98;2303290;76;50701;-77